Archival Weather

Alykel

Alykel, Russia (UOOO)

Report from: Tuesday, November 21, 2023 2:30 AM UTC
Current time: Friday, July 19, 2024 2:09 AM UTC

Current weather – Weather history – Daily summaries
Weather forecast

Temperature-26.0°C (-14.8°F)
Wind chill-36.2°C (-33.2°F)
Dew point-28.0°C (-18.4°F)
Winds 7.8 kts (4 m/s, 8.9 mph) South (180°)
Visibility5 mi. (8 km)
Clouds Ceiling: Overcast 2,500 ft. (762 m)
Altimeter30.12 in.Hg (1020 mB)
Precip. events QF 1:29 PM
Relative humidity83 %
Density altitude-5,548 ft. (-1,691 m)
Remarks No significant changes expected in the next two hours
Flight conditions Marginal Visual Meteorological Conditions
Raw dataUOOO 210230Z 18004MPS 8000 OVC025 M26/M28 Q1020 R19/35//60 NOSIG RMK QFE749/0998
An error has occurred. This application may no longer respond until reloaded. Reload 🗙